createdAt,value
2017-12-17T00:00:33.266Z,19.12
2017-12-17T00:03:01.618Z,19.30
2017-12-17T00:05:29.244Z,18.15
2017-12-17T00:07:56.805Z,18.30
2017-12-17T00:10:24.385Z,17.02
2017-12-17T00:12:51.941Z,18.10
2017-12-17T00:15:19.494Z,16.42
2017-12-17T00:17:47.057Z,16.85
2017-12-17T00:20:14.658Z,15.80
2017-12-17T00:22:43.114Z,16.02
2017-12-17T00:25:11.463Z,17.42
2017-12-17T00:27:39.027Z,17.62
2017-12-17T00:30:06.610Z,17.42
2017-12-17T00:32:34.182Z,16.67
2017-12-17T00:35:01.759Z,17.62
2017-12-17T00:37:29.330Z,18.05
2017-12-17T00:39:57.661Z,18.60
2017-12-17T00:42:25.257Z,18.23
2017-12-17T00:44:52.836Z,18.17
2017-12-17T00:47:21.172Z,18.35
2017-12-17T00:49:48.945Z,18.73
2017-12-17T00:52:16.575Z,15.98
2017-12-17T00:54:44.339Z,18.25
2017-12-17T00:57:11.947Z,18.25
2017-12-17T00:59:39.512Z,18.42
2017-12-17T01:02:07.063Z,17.02
2017-12-17T01:04:34.649Z,18.30
2017-12-17T01:07:02.215Z,17.58
2017-12-17T01:09:30.545Z,17.85
2017-12-17T01:11:58.096Z,16.77
2017-12-17T01:14:25.687Z,17.08
2017-12-17T01:16:53.263Z,19.75
2017-12-17T01:19:20.840Z,18.45
2017-12-17T01:21:49.203Z,19.62
2017-12-17T01:24:16.773Z,20.67
2017-12-17T01:26:44.533Z,20.33
2017-12-17T01:29:12.105Z,19.85
2017-12-17T01:31:40.473Z,21.85
2017-12-17T01:34:08.041Z,19.40
2017-12-17T01:36:36.391Z,18.08
2017-12-17T01:39:03.975Z,18.95
2017-12-17T01:41:31.581Z,19.52
2017-12-17T01:43:59.127Z,18.45
2017-12-17T01:46:27.452Z,20.12
2017-12-17T01:48:55.179Z,18.65
2017-12-17T01:51:22.749Z,18.58
2017-12-17T01:53:50.328Z,19.92
2017-12-17T01:56:18.017Z,17.75
2017-12-17T01:58:45.582Z,19.98
2017-12-17T02:01:13.231Z,17.37
2017-12-17T02:03:40.815Z,19.70
2017-12-17T02:06:08.377Z,18.35
2017-12-17T02:08:35.966Z,16.95
2017-12-17T02:11:04.302Z,18.73
2017-12-17T02:13:31.866Z,16.65
2017-12-17T02:15:59.434Z,13.73
2017-12-17T02:18:26.973Z,15.95
2017-12-17T02:20:54.571Z,15.73
2017-12-17T02:23:22.106Z,15.50
2017-12-17T02:25:49.662Z,17.25
2017-12-17T02:28:17.235Z,16.60
2017-12-17T02:30:45.568Z,15.23
2017-12-17T02:33:13.106Z,15.88
2017-12-17T02:35:40.842Z,15.85
2017-12-17T02:38:08.388Z,16.42
2017-12-17T02:40:35.971Z,15.13
2017-12-17T02:43:03.592Z,15.68
2017-12-17T02:45:31.102Z,15.32
2017-12-17T02:47:58.704Z,15.48
2017-12-17T02:50:26.183Z,16.27
2017-12-17T02:52:53.823Z,16.17
2017-12-17T02:55:21.361Z,14.15
2017-12-17T02:57:49.694Z,15.73
2017-12-17T03:00:25.850Z,12.13
2017-12-17T03:02:53.549Z,15.48
2017-12-17T03:05:21.094Z,14.98
2017-12-17T03:07:48.661Z,14.30
2017-12-17T03:10:16.232Z,13.52
2017-12-17T03:12:43.991Z,13.25
2017-12-17T03:15:11.542Z,14.10
2017-12-17T03:17:39.087Z,13.65
2017-12-17T03:20:06.681Z,12.77
2017-12-17T03:22:34.202Z,12.27
2017-12-17T03:25:01.753Z,14.32
2017-12-17T03:27:29.321Z,14.27
2017-12-17T03:29:56.867Z,14.50
2017-12-17T03:32:24.407Z,16.83
2017-12-17T03:34:52.725Z,17.00
2017-12-17T03:37:20.259Z,16.05
2017-12-17T03:39:47.842Z,15.85
2017-12-17T03:42:15.409Z,14.90
2017-12-17T03:44:42.963Z,14.93
2017-12-17T03:47:10.526Z,15.30
2017-12-17T03:49:38.079Z,15.10
2017-12-17T03:52:05.654Z,14.00
2017-12-17T03:54:33.213Z,14.52
2017-12-17T03:57:00.774Z,16.02
2017-12-17T03:59:28.367Z,16.17
2017-12-17T04:01:55.893Z,15.25
2017-12-17T04:04:23.445Z,15.18
2017-12-17T04:06:51.001Z,15.30
2017-12-17T04:09:18.579Z,14.65
2017-12-17T04:11:46.105Z,16.42
2017-12-17T04:14:13.713Z,14.95
2017-12-17T04:16:41.257Z,16.40
2017-12-17T04:19:08.833Z,16.67
2017-12-17T04:21:36.395Z,16.10
2017-12-17T04:24:03.990Z,17.00
2017-12-17T04:26:32.325Z,17.15
2017-12-17T04:28:59.883Z,16.02
2017-12-17T04:31:27.446Z,16.75
2017-12-17T04:33:55.152Z,17.00
2017-12-17T04:36:23.473Z,16.48
2017-12-17T04:38:51.044Z,17.20
2017-12-17T04:41:18.605Z,17.73
2017-12-17T04:43:46.260Z,17.83
2017-12-17T04:46:13.810Z,19.83
2017-12-17T04:48:41.391Z,19.15
2017-12-17T04:51:08.982Z,21.85
2017-12-17T04:53:36.649Z,22.27
2017-12-17T04:56:04.402Z,19.75
2017-12-17T04:58:31.945Z,21.10
2017-12-17T05:00:59.522Z,21.12
2017-12-17T05:03:27.109Z,21.02
2017-12-17T05:05:54.744Z,19.45
2017-12-17T05:08:22.465Z,18.77
2017-12-17T05:10:50.096Z,20.40
2017-12-17T05:13:17.668Z,20.77
2017-12-17T05:15:46.017Z,19.75
2017-12-17T05:18:13.613Z,20.35
2017-12-17T05:20:41.951Z,19.35
2017-12-17T05:23:09.590Z,19.67
2017-12-17T05:28:11.333Z,19.35
2017-12-17T05:30:39.671Z,20.00
2017-12-17T05:33:07.237Z,21.08
2017-12-17T05:35:34.800Z,20.92
2017-12-17T05:38:02.435Z,21.42
2017-12-17T05:40:29.994Z,19.10
2017-12-17T05:42:57.581Z,19.75
2017-12-17T05:45:25.142Z,20.75
2017-12-17T05:47:52.813Z,21.75
2017-12-17T05:50:20.470Z,22.65
2017-12-17T05:52:48.137Z,20.90
2017-12-17T05:55:15.734Z,22.15
2017-12-17T05:57:43.497Z,22.90
2017-12-17T06:00:11.111Z,22.42
2017-12-17T06:02:38.655Z,21.00
2017-12-17T06:05:06.229Z,21.10
2017-12-17T06:07:33.810Z,19.42
2017-12-17T06:10:01.470Z,22.67
2017-12-17T06:12:29.150Z,22.25
2017-12-17T06:14:56.739Z,20.75
2017-12-17T06:17:26.362Z,19.30
2017-12-17T06:19:53.990Z,21.80
2017-12-17T06:22:21.621Z,22.17
2017-12-17T06:24:49.165Z,22.80
2017-12-17T06:27:16.771Z,20.52
2017-12-17T06:29:44.869Z,20.75
2017-12-17T06:32:13.283Z,20.98
2017-12-17T06:34:41.036Z,21.35
2017-12-17T06:37:08.585Z,20.67
2017-12-17T06:39:36.925Z,21.27
2017-12-17T06:42:05.266Z,20.40
2017-12-17T06:44:33.079Z,22.30
2017-12-17T06:47:01.414Z,20.92
2017-12-17T06:49:28.937Z,22.33
2017-12-17T06:51:57.648Z,22.02
2017-12-17T06:54:26.378Z,19.52
2017-12-17T06:56:53.950Z,21.02
2017-12-17T06:59:21.502Z,23.50
2017-12-17T07:01:49.037Z,19.10
2017-12-17T07:04:16.604Z,21.02
2017-12-17T07:06:44.166Z,21.20
2017-12-17T07:09:11.711Z,20.27
2017-12-17T07:11:39.282Z,20.73
2017-12-17T07:14:06.813Z,19.85
2017-12-17T07:16:34.404Z,20.83
2017-12-17T07:19:01.966Z,22.92
2017-12-17T07:21:29.637Z,21.08
2017-12-17T07:23:57.176Z,22.17
2017-12-17T07:26:24.746Z,22.62
2017-12-17T07:28:52.320Z,23.33
2017-12-17T07:31:19.941Z,21.25
2017-12-17T07:33:47.461Z,23.70
2017-12-17T07:36:15.773Z,21.08
2017-12-17T07:38:44.116Z,21.30
2017-12-17T07:41:11.702Z,21.87
2017-12-17T07:43:39.262Z,21.52
2017-12-17T07:46:07.622Z,21.98
2017-12-17T07:48:59.616Z,24.25
2017-12-17T07:51:28.516Z,24.40
2017-12-17T07:53:56.073Z,25.12
2017-12-17T07:56:23.635Z,23.55
2017-12-17T07:58:51.313Z,25.40
2017-12-17T08:01:18.916Z,24.50
2017-12-17T08:03:46.456Z,25.45
2017-12-17T08:06:14.030Z,27.73
2017-12-17T08:08:41.606Z,26.25
2017-12-17T08:11:09.934Z,25.58
2017-12-17T08:13:37.663Z,25.40
2017-12-17T08:16:05.978Z,23.87
2017-12-17T08:18:33.550Z,25.70
2017-12-17T08:21:01.114Z,30.77
2017-12-17T08:23:28.767Z,24.75
2017-12-17T08:25:56.367Z,24.90
2017-12-17T08:28:23.920Z,26.30
2017-12-17T08:30:51.483Z,24.75
2017-12-17T08:33:19.113Z,28.87
2017-12-17T08:35:46.690Z,25.23
2017-12-17T08:38:14.390Z,25.92
2017-12-17T08:40:41.949Z,26.05
2017-12-17T08:43:09.501Z,24.70
2017-12-17T08:45:37.154Z,25.98
2017-12-17T08:48:04.733Z,28.98
2017-12-17T08:50:32.314Z,24.30
2017-12-17T08:53:00.813Z,23.52
2017-12-17T08:55:28.433Z,27.00
2017-12-17T08:57:55.998Z,23.45
2017-12-17T09:00:23.558Z,25.25
2017-12-17T09:02:51.886Z,25.83
2017-12-17T09:05:19.469Z,24.85
2017-12-17T09:07:47.083Z,26.10
2017-12-17T09:10:15.595Z,23.83
2017-12-17T09:12:43.131Z,23.95
2017-12-17T09:15:12.477Z,25.70
2017-12-17T09:17:41.079Z,25.95
2017-12-17T09:20:08.646Z,25.55
2017-12-17T09:22:36.982Z,24.00
2017-12-17T09:25:04.551Z,26.12
2017-12-17T09:27:32.142Z,24.60
2017-12-17T09:29:59.734Z,25.83
2017-12-17T09:32:28.114Z,25.02
2017-12-17T09:34:55.671Z,25.67
2017-12-17T09:37:23.326Z,25.60
2017-12-17T09:39:50.960Z,26.48
2017-12-17T09:42:18.537Z,26.10
2017-12-17T09:44:46.142Z,25.77
2017-12-17T09:47:14.486Z,27.77
2017-12-17T09:49:42.142Z,26.80
2017-12-17T09:52:09.685Z,24.90
2017-12-17T09:54:37.353Z,25.88
2017-12-17T09:57:04.897Z,22.98
2017-12-17T09:59:32.474Z,24.17
2017-12-17T10:02:00.038Z,26.00
2017-12-17T10:04:27.593Z,27.90
2017-12-17T10:06:55.185Z,24.27
2017-12-17T10:09:22.742Z,25.12
2017-12-17T10:11:50.298Z,24.87
2017-12-17T10:14:17.862Z,26.08
2017-12-17T10:16:45.533Z,24.02
2017-12-17T10:19:13.117Z,23.15
2017-12-17T10:21:41.447Z,22.90
2017-12-17T10:24:09.044Z,23.30
2017-12-17T10:26:36.659Z,22.60
2017-12-17T10:29:04.210Z,23.87
2017-12-17T10:31:31.798Z,26.05
2017-12-17T10:33:59.362Z,23.00
2017-12-17T10:36:26.961Z,24.55
2017-12-17T10:38:55.321Z,25.73
2017-12-17T10:41:22.942Z,22.37
2017-12-17T10:43:50.522Z,24.45
2017-12-17T10:46:18.098Z,21.10
2017-12-17T10:48:45.678Z,23.27
2017-12-17T10:51:13.257Z,24.60
2017-12-17T10:53:40.846Z,26.20
2017-12-17T10:56:08.507Z,24.15
2017-12-17T10:58:36.254Z,26.17
2017-12-17T11:01:03.854Z,24.05
2017-12-17T11:03:31.565Z,24.00
2017-12-17T11:05:59.884Z,23.20
2017-12-17T11:08:27.436Z,23.17
2017-12-17T11:10:55.044Z,22.67
2017-12-17T11:13:22.731Z,19.50
2017-12-17T11:15:50.387Z,18.60
2017-12-17T11:18:17.961Z,20.52
2017-12-17T11:20:46.314Z,23.10
2017-12-17T11:23:13.959Z,20.00
2017-12-17T11:25:41.660Z,21.23
2017-12-17T11:28:09.264Z,20.98
2017-12-17T11:30:36.825Z,22.25
2017-12-17T11:33:04.488Z,21.92
2017-12-17T11:35:32.041Z,21.70
2017-12-17T11:37:59.628Z,22.30
2017-12-17T11:40:27.395Z,21.62
2017-12-17T11:42:54.967Z,20.80
2017-12-17T11:45:22.548Z,20.80
2017-12-17T11:47:50.163Z,19.17
2017-12-17T11:50:17.753Z,19.70
2017-12-17T11:52:45.331Z,20.80
2017-12-17T11:55:12.966Z,21.15
2017-12-17T11:57:40.539Z,20.40
2017-12-17T12:00:08.089Z,19.67
2017-12-17T12:02:35.720Z,19.50
2017-12-17T12:05:04.057Z,19.70
2017-12-17T12:07:31.758Z,19.15
2017-12-17T12:09:59.628Z,20.15
2017-12-17T12:12:27.230Z,18.92
2017-12-17T12:14:54.806Z,18.67
2017-12-17T12:17:22.420Z,17.35
2017-12-17T12:19:50.735Z,17.67
2017-12-17T12:22:18.379Z,15.93
2017-12-17T12:24:46.055Z,16.55
2017-12-17T12:27:13.779Z,17.48
2017-12-17T12:29:41.381Z,16.50
2017-12-17T12:32:10.430Z,16.15
2017-12-17T12:34:38.052Z,15.27
2017-12-17T12:37:05.616Z,17.45
2017-12-17T12:39:33.194Z,17.75
2017-12-17T12:42:00.936Z,18.05
2017-12-17T12:44:28.534Z,18.55
2017-12-17T12:46:56.418Z,17.27
2017-12-17T12:49:24.787Z,16.80
2017-12-17T12:51:54.354Z,15.23
2017-12-17T12:54:22.767Z,15.75
2017-12-17T12:56:51.261Z,15.07
2017-12-17T12:59:18.930Z,16.80
2017-12-17T13:01:47.319Z,15.48
2017-12-17T13:04:15.622Z,16.10
2017-12-17T13:06:43.272Z,16.95
2017-12-17T13:09:10.886Z,15.70
2017-12-17T13:11:38.459Z,15.80
2017-12-17T13:14:06.038Z,16.90
2017-12-17T13:16:33.935Z,16.55
2017-12-17T13:19:01.538Z,16.23
2017-12-17T13:21:29.402Z,15.13
2017-12-17T13:23:57.143Z,17.50
2017-12-17T13:26:25.497Z,18.58
2017-12-17T13:28:53.083Z,18.10
2017-12-17T13:31:20.709Z,18.23
2017-12-17T13:33:48.330Z,18.92
2017-12-17T13:36:15.930Z,18.62
2017-12-17T13:38:43.538Z,18.35
2017-12-17T13:41:11.868Z,19.37
2017-12-17T13:43:39.441Z,19.15
2017-12-17T13:46:07.044Z,19.90
2017-12-17T13:48:35.409Z,19.73
2017-12-17T13:51:03.108Z,20.27
2017-12-17T13:53:41.065Z,21.62
2017-12-17T13:56:09.451Z,23.08
2017-12-17T13:58:37.006Z,23.00
2017-12-17T14:01:04.554Z,22.55
2017-12-17T14:03:32.141Z,22.62
2017-12-17T14:05:59.754Z,24.12
2017-12-17T14:08:27.314Z,21.75
2017-12-17T14:10:54.859Z,21.37
2017-12-17T14:13:22.421Z,20.42
2017-12-17T14:15:50.006Z,21.55
2017-12-17T14:18:17.593Z,20.92
2017-12-17T14:20:45.178Z,19.98
2017-12-17T14:23:12.734Z,19.73
2017-12-17T14:25:40.317Z,19.48
2017-12-17T14:28:08.703Z,19.35
2017-12-17T14:30:37.049Z,17.62
2017-12-17T14:33:04.625Z,18.65
2017-12-17T14:35:32.232Z,17.65
2017-12-17T14:38:00.512Z,18.67
2017-12-17T14:40:28.074Z,17.00
2017-12-17T14:42:55.611Z,18.73
2017-12-17T14:45:23.941Z,20.48
2017-12-17T14:47:51.543Z,18.65
2017-12-17T14:50:19.990Z,18.40
2017-12-17T14:52:47.582Z,17.30
2017-12-17T14:55:15.904Z,16.70
2017-12-17T14:57:43.497Z,18.67
2017-12-17T15:00:11.072Z,18.42
2017-12-17T15:02:38.642Z,18.40
2017-12-17T15:05:06.248Z,17.15
2017-12-17T15:07:33.782Z,17.10
2017-12-17T15:10:01.394Z,18.12
2017-12-17T15:12:28.951Z,17.58
2017-12-17T15:14:56.588Z,15.70
2017-12-17T15:17:24.230Z,15.35
2017-12-17T15:19:51.789Z,17.50
2017-12-17T15:22:19.365Z,16.80
2017-12-17T15:24:46.913Z,17.77
2017-12-17T15:27:14.509Z,18.62
2017-12-17T15:29:42.050Z,18.25
2017-12-17T15:32:09.614Z,17.37
2017-12-17T15:34:37.182Z,17.60
2017-12-17T15:37:05.025Z,18.65
2017-12-17T15:39:32.605Z,17.87
2017-12-17T15:42:00.196Z,19.00
2017-12-17T15:44:28.570Z,19.10
2017-12-17T15:46:56.172Z,16.33
2017-12-17T15:49:23.738Z,17.15
2017-12-17T15:51:52.091Z,18.17
2017-12-17T15:54:19.655Z,17.52
2017-12-17T15:56:48.003Z,19.35
2017-12-17T15:59:15.564Z,18.95
2017-12-17T16:01:43.137Z,19.67
2017-12-17T16:04:10.706Z,21.90
2017-12-17T16:06:38.278Z,18.73
2017-12-17T16:09:06.664Z,20.70
2017-12-17T16:11:35.033Z,19.52
2017-12-17T16:14:02.639Z,20.50
2017-12-17T16:16:30.170Z,20.80
2017-12-17T16:18:58.516Z,21.20
2017-12-17T16:21:26.095Z,22.60
2017-12-17T16:23:53.814Z,20.70
2017-12-17T16:26:21.472Z,19.77
2017-12-17T16:28:49.025Z,20.08
2017-12-17T16:31:16.602Z,20.50
2017-12-17T16:33:45.102Z,21.85
2017-12-17T16:36:12.809Z,23.90
2017-12-17T16:38:42.050Z,21.37
2017-12-17T16:41:09.654Z,26.20
2017-12-17T16:43:37.216Z,22.05
2017-12-17T16:46:04.818Z,21.15
2017-12-17T16:48:33.184Z,20.60
2017-12-17T16:51:01.523Z,21.10
2017-12-17T16:53:29.123Z,21.55
2017-12-17T16:55:57.466Z,21.10
2017-12-17T16:58:25.921Z,23.00
2017-12-17T17:00:53.487Z,19.55
2017-12-17T17:03:21.083Z,21.98
2017-12-17T17:05:48.656Z,18.50
2017-12-17T17:08:17.011Z,19.17
2017-12-17T17:10:44.585Z,19.70
2017-12-17T17:13:12.920Z,20.10
2017-12-17T17:15:40.574Z,20.08
2017-12-17T17:18:08.133Z,20.52
2017-12-17T17:20:35.713Z,20.85
2017-12-17T17:23:03.518Z,19.80
2017-12-17T17:25:31.115Z,18.50
2017-12-17T17:27:58.725Z,19.27
2017-12-17T17:30:26.289Z,18.87
2017-12-17T17:32:53.870Z,20.23
2017-12-17T17:35:24.114Z,20.48
2017-12-17T17:37:51.714Z,19.17
2017-12-17T17:40:19.294Z,18.98
2017-12-17T17:42:46.859Z,20.08
2017-12-17T17:45:14.764Z,18.40
2017-12-17T17:47:42.443Z,17.23
2017-12-17T17:50:11.958Z,17.73
2017-12-17T17:52:39.469Z,15.73
2017-12-17T17:55:07.786Z,15.63
2017-12-17T17:57:35.379Z,15.38
2017-12-17T18:00:03.107Z,15.80
2017-12-17T18:02:30.678Z,15.63
2017-12-17T18:04:58.445Z,16.67
2017-12-17T18:07:26.032Z,14.57
2017-12-17T18:09:53.728Z,15.60
2017-12-17T18:12:22.099Z,16.33
2017-12-17T18:14:49.654Z,15.63
2017-12-17T18:17:17.254Z,16.10
2017-12-17T18:19:45.625Z,15.80
2017-12-17T18:22:13.946Z,15.60
2017-12-17T18:24:41.559Z,15.45
2017-12-17T18:27:09.119Z,15.88
2017-12-17T18:29:37.438Z,15.73
2017-12-17T18:32:05.053Z,13.70
2017-12-17T18:34:32.630Z,15.02
2017-12-17T18:37:00.949Z,14.10
2017-12-17T18:39:28.557Z,12.60
2017-12-17T18:41:56.216Z,12.90
2017-12-17T18:44:24.574Z,12.18
2017-12-17T18:46:52.142Z,12.27
2017-12-17T18:49:19.864Z,12.88
2017-12-17T18:51:47.465Z,13.35
2017-12-17T18:54:15.026Z,11.38
2017-12-17T18:56:42.623Z,12.20
2017-12-17T18:59:10.943Z,12.70
2017-12-17T19:01:38.539Z,11.10
2017-12-17T19:04:06.893Z,10.63
2017-12-17T19:06:34.506Z,11.57
2017-12-17T19:09:02.831Z,11.35
2017-12-17T19:11:30.418Z,11.12
2017-12-17T19:13:58.006Z,10.43
2017-12-17T19:16:26.344Z,11.85
2017-12-17T19:18:53.907Z,11.73
2017-12-17T19:21:21.560Z,9.90
2017-12-17T19:23:49.185Z,11.57
2017-12-17T19:26:17.537Z,11.77
2017-12-17T19:28:45.111Z,10.45
2017-12-17T19:31:12.698Z,10.68
2017-12-17T19:33:40.267Z,12.57
2017-12-17T19:36:07.826Z,11.95
2017-12-17T19:38:35.366Z,9.80
2017-12-17T19:41:03.718Z,10.73
2017-12-17T19:43:31.323Z,12.15
2017-12-17T19:45:58.856Z,14.02
2017-12-17T19:48:27.203Z,12.90
2017-12-17T19:50:54.771Z,13.73
2017-12-17T19:53:22.370Z,14.13
2017-12-17T19:55:50.773Z,12.20
2017-12-17T19:58:18.398Z,13.20
2017-12-17T20:00:46.759Z,12.80
2017-12-17T20:03:14.314Z,12.52
2017-12-17T20:05:41.905Z,11.07
2017-12-17T20:08:09.503Z,10.30
2017-12-17T20:10:37.136Z,10.77
2017-12-17T20:13:04.707Z,11.12
2017-12-17T20:15:32.292Z,10.88
2017-12-17T20:17:59.881Z,10.30
2017-12-17T20:20:27.461Z,9.98
2017-12-17T20:22:55.059Z,9.23
2017-12-17T20:25:22.679Z,9.20
2017-12-17T20:27:50.292Z,9.20
2017-12-17T20:30:17.919Z,9.45
2017-12-17T20:32:45.546Z,9.23
2017-12-17T20:35:13.882Z,8.80
2017-12-17T20:37:41.528Z,7.93
2017-12-17T20:40:09.066Z,9.35
2017-12-17T20:42:36.685Z,7.90
2017-12-17T20:45:04.251Z,7.78
2017-12-17T20:47:31.950Z,8.57
2017-12-17T20:49:59.772Z,7.57
2017-12-17T20:52:27.349Z,8.38
2017-12-17T20:54:54.959Z,8.80
2017-12-17T20:57:23.454Z,8.00
2017-12-17T20:59:51.138Z,8.07
2017-12-17T21:02:18.706Z,9.20
2017-12-17T21:04:47.134Z,8.32
2017-12-17T21:07:14.727Z,9.05
2017-12-17T21:09:42.316Z,7.80
2017-12-17T21:12:09.890Z,8.48
2017-12-17T21:14:37.551Z,9.60
2017-12-17T21:17:06.037Z,9.25
2017-12-17T21:19:33.745Z,7.35
2017-12-17T21:22:01.329Z,8.98
2017-12-17T21:24:28.912Z,9.90
2017-12-17T21:26:56.479Z,8.40
2017-12-17T21:29:25.380Z,7.80
2017-12-17T21:31:52.988Z,7.75
2017-12-17T21:34:21.921Z,9.15
2017-12-17T21:36:49.495Z,9.10
2017-12-17T21:39:17.078Z,9.07
2017-12-17T21:41:45.643Z,7.93
2017-12-17T21:44:13.218Z,7.78
2017-12-17T21:46:41.554Z,8.05
2017-12-17T21:49:09.363Z,8.43
2017-12-17T21:51:37.717Z,9.38
2017-12-17T21:54:05.288Z,8.30
2017-12-17T21:56:32.860Z,7.57
2017-12-17T21:59:01.318Z,8.18
2017-12-17T22:01:28.910Z,7.55
2017-12-17T22:03:57.262Z,8.00
2017-12-17T22:06:24.823Z,7.80
2017-12-17T22:08:52.428Z,6.95
2017-12-17T22:11:19.992Z,7.82
2017-12-17T22:13:47.597Z,7.55
2017-12-17T22:16:16.771Z,7.97
2017-12-17T22:18:45.182Z,7.72
2017-12-17T22:21:12.808Z,6.20
2017-12-17T22:23:40.384Z,6.18
2017-12-17T22:26:07.941Z,6.82
2017-12-17T22:28:35.514Z,6.60
2017-12-17T22:31:03.098Z,7.05
2017-12-17T22:33:30.649Z,7.55
2017-12-17T22:35:58.220Z,7.95
2017-12-17T22:38:25.854Z,6.03
2017-12-17T22:40:53.428Z,7.05
2017-12-17T22:43:21.002Z,8.30
2017-12-17T22:45:48.703Z,7.62
2017-12-17T22:48:17.084Z,7.00
2017-12-17T22:50:45.441Z,7.75
2017-12-17T22:53:13.502Z,7.40
2017-12-17T22:55:41.094Z,7.72
2017-12-17T22:58:09.460Z,7.72
2017-12-17T23:00:37.042Z,5.82
2017-12-17T23:03:05.686Z,7.22
2017-12-17T23:05:33.259Z,8.38
2017-12-17T23:08:00.942Z,7.10
2017-12-17T23:10:29.310Z,7.80
2017-12-17T23:12:56.851Z,7.45
2017-12-17T23:15:24.535Z,6.82
2017-12-17T23:17:52.098Z,8.05
2017-12-17T23:20:19.677Z,9.77
2017-12-17T23:22:48.232Z,8.68
2017-12-17T23:25:15.804Z,9.48
2017-12-17T23:27:43.377Z,8.82
2017-12-17T23:30:11.791Z,9.85
2017-12-17T23:32:39.350Z,8.85
2017-12-17T23:35:06.914Z,9.13
2017-12-17T23:37:34.564Z,9.10
2017-12-17T23:40:02.128Z,8.50
2017-12-17T23:42:29.701Z,9.57
2017-12-17T23:44:57.414Z,9.98
2017-12-17T23:47:24.993Z,8.60
2017-12-17T23:49:52.586Z,10.68
2017-12-17T23:52:20.170Z,9.43
2017-12-17T23:54:47.714Z,11.77
2017-12-17T23:57:15.306Z,10.18
2017-12-17T23:59:42.934Z,11.20
